Time;durP1;ratioP1;P1;durP2;ratioP2;P2;SDS_P1;SDS_P2;PMS_P1;PMS_P2;Temp;Humidity;BMP_temperature;BMP_pressure;BME280_temperature;BME280_humidity;BME280_pressure;Samples;Min_cycle;Max_cycle;Signal;HPM_P1;HPM_P2
2023/01/05 00:01:56;;;;;;;25.38;15.80;;;;;;;8.14;71.21;101882.91;5000845;28;20061;-85
2023/01/05 00:04:22;;;;;;;25.08;15.75;;;;;;;8.11;71.31;101874.25;4958275;28;20030;-83
2023/01/05 00:06:48;;;;;;;24.70;15.45;;;;;;;8.07;71.63;101878.97;4979741;28;20042;-85
2023/01/05 00:09:19;;;;;;;24.23;16.20;;;;;;;7.93;72.07;101874.66;4953738;28;20454;-86
2023/01/05 00:23:08;;;;;;;26.67;15.40;;;;;;;7.51;74.04;101878.66;4989711;28;20133;-87
2023/01/05 00:25:40;;;;;;;28.40;15.90;;;;;;;7.62;73.63;101873.38;4991741;28;20034;-85
2023/01/05 00:28:08;;;;;;;24.67;14.93;;;;;;;7.61;73.72;101858.31;4955685;28;20034;-85
2023/01/05 00:30:42;;;;;;;24.13;15.73;;;;;;;7.60;73.71;101862.78;4968262;28;20053;-88
2023/01/05 00:33:15;;;;;;;26.48;15.65;;;;;;;7.49;73.89;101835.09;5008895;28;20039;-86
2023/01/05 00:35:44;;;;;;;25.98;15.32;;;;;;;7.43;73.79;101830.22;4992092;28;20039;-84
2023/01/05 00:38:10;;;;;;;23.33;14.93;;;;;;;7.70;73.94;101849.59;4987207;28;20041;-84
2023/01/05 00:40:39;;;;;;;23.27;14.38;;;;;;;7.61;74.01;101834.22;4991075;28;20041;-85
2023/01/05 00:43:06;;;;;;;24.88;14.10;;;;;;;7.75;73.76;101858.16;4966490;28;20129;-86
2023/01/05 00:45:32;;;;;;;24.67;14.48;;;;;;;7.56;74.18;101837.22;4994540;28;20046;-85
2023/01/05 00:47:58;;;;;;;22.60;14.95;;;;;;;7.52;74.33;101833.06;4965225;28;20527;-84
2023/01/05 00:50:25;;;;;;;24.95;14.27;;;;;;;7.44;74.52;101826.56;4964335;28;20451;-83
2023/01/05 00:52:51;;;;;;;23.65;14.57;;;;;;;7.72;74.17;101844.97;4968344;28;20129;-85
2023/01/05 00:55:16;;;;;;;24.20;14.52;;;;;;;7.73;74.10;101844.00;4994487;28;21123;-85
2023/01/05 00:57:44;;;;;;;24.15;14.70;;;;;;;7.58;74.25;101818.38;4976955;28;20082;-86
2023/01/05 01:00:16;;;;;;;23.92;14.07;;;;;;;7.66;74.76;101837.41;4990607;28;20034;-86
2023/01/05 01:02:42;;;;;;;21.58;13.60;;;;;;;7.58;75.25;101839.78;4970820;28;20053;-84
2023/01/05 01:05:08;;;;;;;22.70;13.80;;;;;;;7.41;75.14;101816.94;4982740;28;20037;-82
2023/01/05 01:07:36;;;;;;;23.77;14.50;;;;;;;7.47;75.22;101820.97;4973110;28;20042;-84
2023/01/05 01:10:02;;;;;;;26.25;14.90;;;;;;;7.58;75.06;101815.69;4992143;28;20080;-86
2023/01/05 01:12:28;;;;;;;24.02;14.25;;;;;;;7.56;74.97;101814.94;4971674;28;20466;-85
2023/01/05 01:14:56;;;;;;;22.92;14.18;;;;;;;7.68;74.88;101822.09;5003521;28;20041;-84
2023/01/05 01:17:22;;;;;;;24.38;14.10;;;;;;;7.61;74.93;101802.94;4962331;28;20054;-86
2023/01/05 01:19:47;;;;;;;;;;;;;;;7.49;75.80;101821.72;4991754;28;20451;-84
2023/01/05 01:22:13;;;;;;;26.23;13.60;;;;;;;7.42;76.17;101801.72;4980660;28;20008;-85
2023/01/05 01:24:42;;;;;;;25.35;13.88;;;;;;;7.55;76.08;101813.25;4975838;28;20038;-84
2023/01/05 01:27:09;;;;;;;23.55;13.32;;;;;;;7.26;76.47;101773.44;4978379;28;20046;-85
2023/01/05 01:29:36;;;;;;;28.75;13.98;;;;;;;7.54;75.85;101790.16;4974954;28;20120;-85
2023/01/05 01:32:03;;;;;;;22.27;13.05;;;;;;;7.58;75.98;101802.31;4991987;28;20049;-85
2023/01/05 01:34:32;;;;;;;27.67;13.15;;;;;;;7.48;76.19;101786.09;4995426;28;20030;-85
2023/01/05 01:37:03;;;;;;;26.75;14.35;;;;;;;7.56;76.18;101782.81;4968920;28;20129;-86
2023/01/05 01:39:30;;;;;;;24.58;14.25;;;;;;;7.34;76.29;101762.16;4952702;28;20065;-85
2023/01/05 01:41:57;;;;;;;25.60;14.55;;;;;;;7.45;76.53;101791.66;4955811;28;20073;-86
2023/01/05 01:44:47;;;;;;;24.70;14.40;;;;;;;7.46;76.64;101793.38;4976092;28;20038;-87
2023/01/05 01:48:01;;;;;;;25.80;14.10;;;;;;;7.21;76.96;101750.66;4996555;28;20047;-87
2023/01/05 01:50:56;;;;;;;23.23;14.00;;;;;;;7.26;76.60;101733.31;4998130;28;20065;-86
2023/01/05 01:53:27;;;;;;;30.08;13.65;;;;;;;7.60;76.09;101771.78;4968669;28;20341;-86
2023/01/05 01:55:53;;;;;;;21.63;13.48;;;;;;;7.55;76.02;101762.41;4968264;28;20042;-84
2023/01/05 01:58:20;;;;;;;22.73;13.80;;;;;;;7.48;75.75;101734.41;4960448;28;20080;-85
2023/01/05 02:00:47;;;;;;;26.60;14.05;;;;;;;7.50;75.99;101745.84;4977153;28;20046;-88
2023/01/05 02:03:16;;;;;;;26.48;14.20;;;;;;;7.60;75.66;101746.84;4977130;28;20071;-85
2023/01/05 02:05:42;;;;;;;28.92;13.98;;;;;;;7.43;76.14;101747.25;4988213;28;20034;-85
2023/01/05 02:08:12;;;;;;;24.08;14.95;;;;;;;7.40;76.00;101727.78;4999158;28;20503;-87
2023/01/05 02:10:56;;;;;;;25.67;15.25;;;;;;;7.63;75.44;101751.97;4973356;28;20125;-84
2023/01/05 02:13:27;;;;;;;27.00;15.98;;;;;;;7.58;75.85;101746.94;4992401;28;20491;-87
2023/01/05 02:16:06;;;;;;;27.75;15.88;;;;;;;7.64;75.72;101744.81;4992272;28;20151;-85
2023/01/05 02:18:40;;;;;;;25.35;16.73;;;;;;;7.49;75.80;101733.41;4984080;28;20038;-85
2023/01/05 02:21:11;;;;;;;33.42;18.35;;;;;;;7.64;75.71;101734.94;5001230;28;20248;-83
2023/01/05 02:23:39;;;;;;;32.15;18.73;;;;;;;7.60;75.75;101728.13;4999858;28;20042;-86
2023/01/05 02:26:07;;;;;;;36.60;21.23;;;;;;;7.56;76.01;101723.94;4997064;28;20069;-84
2023/01/05 02:29:00;;;;;;;39.92;23.98;;;;;;;7.59;76.03;101719.25;4992668;28;20035;-85
2023/01/05 02:31:35;;;;;;;40.75;23.73;;;;;;;7.70;75.61;101717.56;4982731;28;20046;-84
2023/01/05 02:34:08;;;;;;;40.13;24.42;;;;;;;7.65;75.30;101683.13;4984292;28;20043;-84
2023/01/05 02:36:41;;;;;;;47.42;26.05;;;;;;;7.60;75.87;101720.09;4950005;28;20049;-83
2023/01/05 02:39:33;;;;;;;36.08;22.83;;;;;;;7.47;75.65;101679.16;4966302;28;20156;-86
2023/01/05 02:42:02;;;;;;;34.67;20.33;;;;;;;7.55;76.31;101707.03;4977306;28;20128;-84
2023/01/05 02:44:30;;;;;;;31.63;18.88;;;;;;;7.48;76.12;101694.25;4973486;28;20038;-83
2023/01/05 02:47:05;;;;;;;32.08;19.02;;;;;;;7.51;76.26;101694.00;4976105;28;20140;-84
2023/01/05 02:49:36;;;;;;;34.28;19.00;;;;;;;7.52;76.36;101698.41;4975640;28;20038;-83
2023/01/05 02:52:01;;;;;;;32.55;18.17;;;;;;;7.57;75.81;101673.00;4973083;28;20109;-84
2023/01/05 02:54:43;;;;;;;38.92;19.45;;;;;;;7.57;75.77;101683.72;4970651;28;20052;-85
2023/01/05 02:57:15;;;;;;;33.88;19.55;;;;;;;7.58;75.66;101674.69;4969226;28;20038;-83
2023/01/05 02:59:47;;;;;;;40.10;20.08;;;;;;;7.76;75.46;101680.47;4957483;28;20042;-84
2023/01/05 03:02:24;;;;;;;38.72;21.00;;;;;;;7.67;75.50;101667.78;4972956;28;20355;-84
2023/01/05 03:05:08;;;;;;;36.22;21.15;;;;;;;7.57;75.99;101661.44;4973421;28;20085;-84
2023/01/05 03:07:36;;;;;;;34.88;20.17;;;;;;;7.57;75.96;101667.66;4971269;28;20248;-85
2023/01/05 03:13:39;;;;;;;34.80;20.88;;;;;;;7.63;75.63;101657.44;4951179;28;20066;-82
2023/01/05 03:15:35;;;;;;;36.45;20.95;;;;;;;7.57;75.82;101656.09;4958435;28;20073;-82
2023/01/05 03:18:05;;;;;;;38.42;21.60;;;;;;;7.56;76.07;101655.25;5007640;28;20033;-82
2023/01/05 03:20:38;;;;;;;34.95;21.13;;;;;;;7.76;75.68;101659.06;4998256;28;20039;-84
2023/01/05 03:37:37;;;;;;;36.90;20.05;;;;;;;7.59;75.57;101638.09;4988928;28;20109;-85
2023/01/05 03:40:06;;;;;;;35.42;19.88;;;;;;;7.31;76.35;101613.44;4960481;28;20046;-85
2023/01/05 03:42:34;;;;;;;42.25;20.52;;;;;;;7.33;76.59;101626.72;4943631;28;20653;-84
2023/01/05 03:45:00;;;;;;;34.67;19.17;;;;;;;7.15;76.88;101619.09;4991678;28;20054;-83
2023/01/05 03:47:27;;;;;;;38.25;20.70;;;;;;;7.06;77.21;101626.97;4958847;28;20038;-85
2023/01/05 03:49:54;;;;;;;38.67;19.98;;;;;;;7.02;77.40;101620.13;4961989;28;20038;-84
2023/01/05 03:52:21;;;;;;;39.13;21.55;;;;;;;6.92;78.50;101627.97;4943386;28;20045;-85
2023/01/05 03:54:52;;;;;;;38.88;21.67;;;;;;;6.84;78.29;101603.66;4991622;28;20400;-84
2023/01/05 03:57:17;;;;;;;43.60;22.38;;;;;;;6.74;79.22;101615.03;4960257;28;20065;-85
2023/01/05 03:59:44;;;;;;;39.20;23.50;;;;;;;6.86;79.01;101615.06;4959591;28;20549;-82
2023/01/05 04:02:12;;;;;;;46.88;22.15;;;;;;;6.66;79.22;101589.81;4977223;28;20042;-85
2023/01/05 04:04:38;;;;;;;45.88;23.25;;;;;;;6.75;79.60;101618.53;4959859;28;20038;-82
2023/01/05 04:07:04;;;;;;;38.70;22.65;;;;;;;6.74;79.90;101616.81;4967077;28;20066;-85
2023/01/05 04:09:38;;;;;;;40.97;23.40;;;;;;;6.71;79.61;101593.00;4974559;28;20073;-83
2023/01/05 04:12:06;;;;;;;46.63;24.30;;;;;;;6.55;80.03;101588.78;4992995;28;20060;-84
2023/01/05 04:14:32;;;;;;;44.90;24.52;;;;;;;6.68;79.88;101603.91;4977350;28;20062;-85
2023/01/05 04:16:57;;;;;;;47.47;24.10;;;;;;;6.60;80.07;101588.44;4945484;28;20108;-84
2023/01/05 04:19:25;;;;;;;41.20;23.05;;;;;;;6.68;80.38;101583.38;4959508;28;20281;-84
2023/01/05 04:21:55;;;;;;;44.90;22.92;;;;;;;6.76;80.24;101589.00;4989639;28;20096;-84
2023/01/05 04:24:21;;;;;;;42.70;22.83;;;;;;;7.00;79.89;101614.03;4992147;28;20077;-84
2023/01/05 04:26:52;;;;;;;40.17;21.85;;;;;;;7.01;80.19;101618.44;4963693;28;20050;-83
2023/01/05 04:29:19;;;;;;;41.55;23.00;;;;;;;6.75;80.73;101600.69;4978960;28;20062;-84
2023/01/05 04:31:49;;;;;;;42.03;21.48;;;;;;;6.87;80.78;101603.41;4992423;28;20053;-85
2023/01/05 04:34:14;;;;;;;36.28;21.23;;;;;;;6.86;80.76;101597.22;4976319;28;20383;-83
2023/01/05 04:36:41;;;;;;;37.25;21.70;;;;;;;6.88;80.35;101594.41;4957868;28;20050;-85
2023/01/05 04:39:07;;;;;;;40.92;21.48;;;;;;;7.05;80.62;101612.75;4999522;28;20110;-84
2023/01/05 04:41:35;;;;;;;40.10;21.47;;;;;;;7.20;80.18;101605.38;4962207;28;20046;-84
2023/01/05 04:44:00;;;;;;;37.38;20.65;;;;;;;7.03;80.53;101593.28;4991809;28;20383;-84
2023/01/05 04:46:26;;;;;;;44.93;22.90;;;;;;;6.97;80.29;101578.53;4973871;28;20321;-84
2023/01/05 04:48:52;;;;;;;48.22;27.98;;;;;;;7.13;80.17;101601.47;4988919;28;20321;-85
2023/01/05 04:51:20;;;;;;;49.53;27.53;;;;;;;7.25;80.05;101605.88;4939097;28;20035;-85
2023/01/05 04:53:49;;;;;;;48.80;28.05;;;;;;;7.14;80.52;101612.06;4999410;28;20112;-86
2023/01/05 04:56:17;;;;;;;50.92;26.38;;;;;;;7.27;79.87;101603.94;4971253;28;20050;-86
2023/01/05 04:58:42;;;;;;;48.83;26.83;;;;;;;7.22;79.82;101582.03;4973766;28;20042;-85
2023/01/05 05:01:08;;;;;;;46.20;25.77;;;;;;;7.28;79.56;101586.94;4941867;28;20092;-84
2023/01/05 05:03:34;;;;;;;48.47;24.83;;;;;;;7.32;79.17;101577.69;4957679;28;20366;-84
2023/01/05 05:05:59;;;;;;;46.22;24.63;;;;;;;7.39;79.55;101588.78;4955784;28;20047;-85
2023/01/05 05:08:28;;;;;;;39.35;22.75;;;;;;;7.41;79.29;101581.50;4974829;28;20060;-84
2023/01/05 05:10:55;;;;;;;45.72;23.60;;;;;;;7.54;78.73;101576.91;4990664;28;20491;-85
2023/01/05 05:13:21;;;;;;;43.92;23.50;;;;;;;7.38;78.90;101558.50;4983451;28;20038;-84
2023/01/05 05:15:46;;;;;;;49.78;24.92;;;;;;;7.34;78.64;101543.66;4974943;28;20053;-84
2023/01/05 05:18:14;;;;;;;42.67;23.52;;;;;;;7.50;78.44;101553.19;4957572;28;20046;-87
2023/01/05 05:20:41;;;;;;;47.30;23.45;;;;;;;7.48;78.89;101557.78;4967543;28;20050;-85
2023/01/05 05:23:08;;;;;;;48.40;24.13;;;;;;;7.59;78.64;101555.13;4937165;28;20089;-84
2023/01/05 05:25:34;;;;;;;52.35;23.95;;;;;;;7.53;78.52;101536.88;4984993;28;20129;-84
2023/01/05 05:27:59;;;;;;;66.50;25.33;;;;;;;7.60;78.30;101555.00;4987321;28;20130;-87
2023/01/05 05:30:26;;;;;;;50.58;24.80;;;;;;;7.55;78.41;101551.84;4944730;28;20050;-84
2023/01/05 05:32:55;;;;;;;50.95;25.25;;;;;;;7.65;78.48;101557.31;4974235;28;20038;-84
2023/01/05 05:35:22;;;;;;;50.53;25.25;;;;;;;7.76;78.12;101556.50;4969627;28;20054;-85
2023/01/05 05:37:47;;;;;;;45.20;24.33;;;;;;;7.59;78.21;101545.28;4989924;28;20042;-82
2023/01/05 05:40:13;;;;;;;51.03;24.77;;;;;;;7.67;78.05;101550.03;4981265;28;20053;-83
2023/01/05 05:42:38;;;;;;;51.78;24.63;;;;;;;7.71;78.08;101545.28;4945455;28;20081;-83
2023/01/05 05:45:05;;;;;;;48.03;24.83;;;;;;;7.58;78.13;101527.50;4961321;28;20034;-83
2023/01/05 05:47:30;;;;;;;51.33;24.67;;;;;;;7.76;77.65;101541.28;4986662;28;20290;-85
2023/01/05 05:49:56;;;;;;;54.72;25.75;;;;;;;7.61;78.09;101537.13;4957507;28;20129;-84
2023/01/05 05:52:21;;;;;;;50.10;25.25;;;;;;;7.79;77.74;101540.16;4957553;28;20120;-83
2023/01/05 05:54:47;;;;;;;54.90;25.75;;;;;;;7.61;78.37;101531.78;4940191;28;20054;-83
2023/01/05 05:57:16;;;;;;;56.63;26.02;;;;;;;7.75;77.87;101522.66;4971159;28;20045;-83
2023/01/05 05:59:44;;;;;;;48.78;25.40;;;;;;;7.82;77.88;101535.44;4954257;28;20042;-85
2023/01/05 06:02:10;;;;;;;48.90;26.42;;;;;;;7.78;77.51;101515.22;4969695;28;20148;-84
2023/01/05 06:04:36;;;;;;;57.15;30.35;;;;;;;7.89;77.27;101524.22;4954114;28;20034;-85
2023/01/05 06:07:02;;;;;;;53.10;27.40;;;;;;;7.79;77.70;101511.56;4969640;28;22018;-84
2023/01/05 06:09:27;;;;;;;55.30;29.42;;;;;;;7.87;77.86;101519.00;4954272;28;20030;-82
2023/01/05 06:11:53;;;;;;;60.65;28.08;;;;;;;7.70;77.67;101482.00;4965245;28;20050;-85
2023/01/05 06:14:18;;;;;;;64.00;27.53;;;;;;;7.93;77.33;101514.97;4968724;28;20022;-83
2023/01/05 06:16:45;;;;;;;56.03;27.85;;;;;;;8.02;76.93;101507.06;4952982;28;20324;-83
2023/01/05 06:19:14;;;;;;;54.22;27.48;;;;;;;7.99;76.92;101493.06;4950792;28;20046;-84
2023/01/05 06:21:41;;;;;;;62.03;29.50;;;;;;;7.94;76.67;101480.06;4967499;28;20129;-83
2023/01/05 06:24:07;;;;;;;56.80;29.10;;;;;;;8.20;75.97;101469.91;4954494;28;20455;-80
2023/01/05 06:26:36;;;;;;;60.17;30.02;;;;;;;8.15;75.83;101473.94;4949734;28;20158;-84
2023/01/05 06:29:04;;;;;;;60.85;29.70;;;;;;;8.43;75.59;101497.53;4986278;28;20042;-84
2023/01/05 06:31:31;;;;;;;61.33;29.63;;;;;;;8.47;75.65;101495.41;4972079;28;20053;-83
2023/01/05 06:33:56;;;;;;;55.15;29.52;;;;;;;8.50;75.31;101497.00;4955092;28;20037;-86
2023/01/05 06:36:24;;;;;;;50.35;27.73;;;;;;;8.43;74.69;101460.00;4954991;28;20034;-84
2023/01/05 06:38:51;;;;;;;58.08;27.17;;;;;;;8.88;73.89;101494.66;4975618;28;20038;-85
2023/01/05 06:41:19;;;;;;;48.40;26.40;;;;;;;9.00;73.17;101481.19;4973632;28;20038;-85
2023/01/05 06:43:45;;;;;;;45.00;25.02;;;;;;;8.80;73.41;101470.31;4973639;28;20061;-83
2023/01/05 06:46:13;;;;;;;41.15;23.52;;;;;;;8.87;72.81;101468.81;4972774;28;20089;-84
2023/01/05 06:48:42;;;;;;;45.45;23.98;;;;;;;8.83;73.11;101447.75;5002298;28;20074;-88
2023/01/05 06:51:22;;;;;;;45.53;23.50;;;;;;;8.63;73.21;101444.06;4997868;28;20046;-90
2023/01/05 06:54:34;;;;;;;39.33;23.35;;;;;;;8.95;72.60;101451.22;5113875;22;20179;-94
2023/01/05 07:06:03;;;;;;;43.10;23.40;;;;;;;9.95;69.18;101486.31;5012633;28;20118;-90
2023/01/05 07:08:56;;;;;;;51.00;22.85;;;;;;;9.78;68.65;101458.25;5007893;28;20034;-94
2023/01/05 07:16:56;;;;;;;44.95;23.50;;;;;;;10.09;67.33;101448.31;5044177;23;20050;-90
2023/01/05 07:19:37;;;;;;;42.88;21.95;;;;;;;10.28;67.04;101471.72;4951738;28;20065;-91
2023/01/05 07:22:07;;;;;;;40.10;21.73;;;;;;;10.49;66.07;101443.88;5001357;28;20125;-86
2023/01/05 07:24:40;;;;;;;35.72;20.35;;;;;;;10.50;65.68;101443.72;4985445;28;20140;-89
2023/01/05 07:27:10;;;;;;;38.97;21.30;;;;;;;11.18;64.49;101438.25;4978195;28;20092;-85
2023/01/05 07:29:35;;;;;;;39.60;20.02;;;;;;;12.07;61.18;101449.50;4994602;28;20075;-84
2023/01/05 07:32:01;;;;;;;39.83;20.08;;;;;;;13.23;57.21;101418.81;4992097;28;20431;-84
2023/01/05 07:34:29;;;;;;;29.35;19.02;;;;;;;13.67;55.34;101418.72;4966470;28;20117;-84
2023/01/05 07:36:56;;;;;;;30.17;18.90;;;;;;;14.73;52.48;101417.25;5001558;28;20458;-85
2023/01/05 07:39:21;;;;;;;34.15;21.65;;;;;;;15.26;50.29;101426.63;4978448;28;20108;-84
2023/01/05 07:41:49;;;;;;;33.97;19.77;;;;;;;15.80;49.59;101443.09;4983333;28;20076;-88
2023/01/05 07:44:18;;;;;;;43.83;21.35;;;;;;;15.91;49.11;101432.88;5010128;28;20058;-87
2023/01/05 07:46:57;;;;;;;34.25;20.83;;;;;;;16.54;46.56;101392.97;5002087;28;20046;-87
2023/01/05 07:49:23;;;;;;;33.50;20.60;;;;;;;17.51;44.66;101396.56;4987224;28;20069;-86
2023/01/05 07:51:52;;;;;;;;;;;;;;;18.38;42.59;101426.69;5007167;28;20043;-86
2023/01/05 07:54:20;;;;;;;35.42;20.55;;;;;;;19.01;41.69;101427.72;5008936;28;19956;-86
2023/01/05 07:56:47;;;;;;;36.65;20.70;;;;;;;19.63;39.62;101397.88;5003732;28;20038;-86
2023/01/05 07:59:12;;;;;;;33.88;19.55;;;;;;;20.31;37.65;101389.72;4982413;28;20134;-88
2023/01/05 08:01:39;;;;;;;30.35;19.35;;;;;;;20.70;36.98;101394.41;4988440;28;20043;-86
2023/01/05 08:04:04;;;;;;;32.28;20.05;;;;;;;21.65;35.01;101381.19;4974664;28;20434;-86
2023/01/05 08:06:30;;;;;;;27.35;19.58;;;;;;;22.67;33.08;101389.44;4975440;28;20038;-85
2023/01/05 08:10:27;;;;;;;30.13;18.73;;;;;;;21.94;33.64;101400.88;4973274;28;20490;-86
2023/01/05 08:11:45;;;;;;;28.08;17.00;;;;;;;22.62;32.38;101385.72;4975080;28;20129;-85
2023/01/05 08:14:10;;;;;;;39.40;18.63;;;;;;;22.96;31.94;101379.69;5005657;28;20061;-85
2023/01/05 08:16:36;;;;;;;28.80;17.67;;;;;;;22.04;32.76;101364.81;4989060;28;20419;-86
2023/01/05 08:19:07;;;;;;;22.80;15.65;;;;;;;21.73;33.95;101382.00;4997720;28;20038;-87
2023/01/05 08:21:35;;;;;;;23.42;15.23;;;;;;;22.45;32.52;101363.47;4992634;28;20079;-87
2023/01/05 08:24:05;;;;;;;25.55;16.90;;;;;;;22.02;32.97;101364.19;4998818;28;20085;-84
2023/01/05 08:26:33;;;;;;;27.35;17.92;;;;;;;22.64;32.56;101356.16;4988970;28;20441;-82
2023/01/05 08:29:03;;;;;;;28.23;17.42;;;;;;;22.78;32.32;101352.25;4995236;28;20042;-86
2023/01/05 08:31:30;;;;;;;26.85;18.48;;;;;;;22.94;31.75;101351.69;4986888;28;20448;-87
2023/01/05 08:33:58;;;;;;;25.30;18.08;;;;;;;22.41;32.52;101348.56;4988402;28;20042;-86
2023/01/05 08:36:25;;;;;;;33.47;21.02;;;;;;;22.51;32.70;101338.78;4966673;28;20609;-86
2023/01/05 08:38:56;;;;;;;28.00;18.13;;;;;;;23.66;30.93;101340.09;4977993;28;20040;-88
2023/01/05 08:41:24;;;;;;;26.50;17.15;;;;;;;24.00;30.29;101337.78;4976045;28;20083;-86
2023/01/05 08:43:52;;;;;;;27.67;18.63;;;;;;;24.31;29.98;101300.09;4999047;28;20054;-85
2023/01/05 08:46:21;;;;;;;29.15;18.88;;;;;;;24.66;28.83;101324.06;5014128;28;20052;-85
2023/01/05 08:48:48;;;;;;;29.23;17.98;;;;;;;25.06;28.29;101313.97;4976654;28;20053;-85
2023/01/05 08:51:14;;;;;;;29.98;19.45;;;;;;;25.84;27.39;101314.47;4977897;28;20047;-87
2023/01/05 08:53:42;;;;;;;30.90;18.45;;;;;;;25.44;27.40;101314.53;4961095;28;20120;-88
2023/01/05 08:56:09;;;;;;;24.48;15.95;;;;;;;26.35;26.11;101310.97;4966838;28;20038;-84
2023/01/05 09:04:37;;;;;;;;;;;;;;;25.24;27.74;101274.50;4972927;26;20045;-90
2023/01/05 09:12:53;;;;;;;27.67;15.80;;;;;;;27.48;24.34;101236.13;4998895;28;20042;-90
2023/01/05 09:15:42;;;;;;;21.55;14.63;;;;;;;27.97;23.33;101234.16;4995964;28;20116;-89
2023/01/05 09:18:48;;;;;;;21.20;14.55;;;;;;;28.21;23.22;101231.00;4987608;28;20046;-91
2023/01/05 09:21:20;;;;;;;23.73;15.40;;;;;;;27.05;23.99;101218.53;4998932;28;20038;-86
2023/01/05 09:23:59;;;;;;;20.23;15.40;;;;;;;27.51;23.91;101233.72;4985418;28;20090;-92
2023/01/05 09:26:58;;;;;;;18.50;14.60;;;;;;;28.10;23.08;101208.00;5008801;28;20042;-94
2023/01/05 09:30:23;;;;;;;26.50;15.93;;;;;;;27.01;24.36;101229.22;5009726;28;20062;-86
2023/01/05 09:33:17;;;;;;;20.35;14.45;;;;;;;27.02;24.05;101199.69;5011398;28;20050;-89
2023/01/05 09:36:13;;;;;;;21.08;15.23;;;;;;;27.72;23.39;101195.22;4989844;28;20034;-88
2023/01/05 09:39:11;;;;;;;20.65;14.60;;;;;;;28.28;22.34;101186.56;4970887;28;20096;-87
2023/01/05 09:42:07;;;;;;;19.15;15.52;;;;;;;26.38;24.79;101187.25;4979446;28;20065;-89
2023/01/05 09:45:02;;;;;;;23.30;15.05;;;;;;;26.14;25.01;101174.78;5010237;28;20018;-88
2023/01/05 09:47:57;;;;;;;;;;;;;;;26.49;24.63;101177.22;4996094;28;20052;-89
2023/01/05 09:50:48;;;;;;;22.38;14.10;;;;;;;25.78;25.14;101133.72;5025837;28;19921;-88
2023/01/05 09:54:10;;;;;;;20.67;14.88;;;;;;;27.17;23.79;101140.00;4998626;28;20019;-86
2023/01/05 09:56:49;;;;;;;21.23;16.02;;;;;;;28.59;23.10;101148.91;4998760;28;20501;-91
2023/01/05 09:59:36;;;;;;;19.83;15.38;;;;;;;28.33;22.08;101121.09;5103032;22;20066;-90
2023/01/05 10:02:57;;;;;;;21.35;15.20;;;;;;;28.36;22.14;101139.88;2370998;23;20042;-92
2023/01/05 10:05:54;;;;;;;20.75;13.80;;;;;;;28.30;22.63;101135.41;5042446;23;20039;-93
2023/01/05 10:09:22;;;;;;;15.00;12.15;;;;;;;29.47;21.44;101123.09;5086626;23;20061;-91
2023/01/05 10:15:14;;;;;;;17.35;12.77;;;;;;;29.08;21.56;101101.47;4988694;28;20089;-92
2023/01/05 10:18:03;;;;;;;17.55;13.43;;;;;;;28.52;22.02;101081.94;4998399;28;20061;-87
2023/01/05 10:21:24;;;;;;;17.02;13.02;;;;;;;29.51;20.63;101063.28;5011173;28;20482;-93
2023/01/05 10:24:16;;;;;;;16.30;13.20;;;;;;;29.94;20.42;101071.28;4996908;28;20031;-95
2023/01/05 10:38:45;;;;;;;16.00;12.07;;;;;;;28.27;21.60;101006.03;4008176;23;20057;-95
2023/01/05 10:42:02;;;;;;;16.33;12.20;;;;;;;28.36;21.93;101040.34;4955042;29;20039;-90
2023/01/05 10:45:02;;;;;;;18.92;12.88;;;;;;;29.02;21.24;101028.63;4965797;28;20034;-88
2023/01/05 10:47:42;;;;;;;20.58;18.20;;;;;;;28.41;21.91;101004.41;4977728;28;20034;-89
2023/01/05 10:52:53;;;;;;;19.50;14.18;;;;;;;29.18;21.27;101001.00;4999489;28;20050;-86
2023/01/05 10:55:28;;;;;;;16.52;11.80;;;;;;;30.09;19.99;100983.34;4964016;28;20042;-87
2023/01/05 10:57:54;;;;;;;;;;;;;;;30.58;19.74;101016.94;4983104;28;20094;-86
2023/01/05 11:00:36;;;;;;;28.83;14.32;;;;;;;30.55;19.57;101006.44;5001664;28;19957;-87
2023/01/05 11:03:06;;;;;;;18.38;13.27;;;;;;;30.12;20.02;100987.50;4951070;28;20050;-86
2023/01/05 11:05:47;;;;;;;17.98;13.35;;;;;;;28.60;21.76;100990.94;4967908;28;20053;-87
2023/01/05 11:08:26;;;;;;;16.27;11.93;;;;;;;28.67;21.42;100971.31;4968977;28;20356;-88
2023/01/05 11:11:09;;;;;;;17.88;12.30;;;;;;;29.37;21.06;100990.19;4970761;28;20042;-87
2023/01/05 11:14:14;;;;;;;20.13;13.00;;;;;;;29.58;20.59;100972.41;5013523;28;20046;-92
2023/01/05 11:16:54;;;;;;;19.35;12.02;;;;;;;26.78;23.46;100971.03;4981346;28;20046;-87
2023/01/05 11:19:23;;;;;;;16.40;13.27;;;;;;;27.62;23.14;100946.59;4976528;28;20043;-88
2023/01/05 11:22:07;;;;;;;20.00;12.68;;;;;;;27.20;23.30;100947.41;4965600;28;20034;-90
2023/01/05 11:24:36;;;;;;;26.33;12.68;;;;;;;25.82;25.66;100930.25;4985936;28;20037;-89
2023/01/05 11:27:04;;;;;;;17.83;12.60;;;;;;;26.19;24.91;100937.88;4983160;28;20034;-88
2023/01/05 11:29:30;;;;;;;18.27;13.35;;;;;;;26.28;24.80;100939.91;4965571;28;20042;-87
2023/01/05 11:32:11;;;;;;;22.95;13.90;;;;;;;25.81;25.39;100945.94;5000119;28;20057;-90
2023/01/05 11:34:53;;;;;;;18.17;12.88;;;;;;;24.59;26.29;100923.69;4991496;28;20089;-91
2023/01/05 11:37:27;;;;;;;19.42;13.35;;;;;;;23.86;28.26;100935.41;4993725;28;20042;-90
2023/01/05 11:40:01;;;;;;;21.80;13.90;;;;;;;22.65;29.73;100916.66;4989294;28;20070;-87
2023/01/05 11:42:33;;;;;;;26.70;13.48;;;;;;;22.19;30.28;100896.22;4998190;28;20101;-86
2023/01/05 11:45:23;;;;;;;19.65;13.32;;;;;;;22.10;30.29;100898.44;4998070;28;20042;-86
2023/01/05 11:48:12;;;;;;;20.77;13.35;;;;;;;23.12;29.05;100875.63;5420005;22;20054;-90
2023/01/05 11:50:45;;;;;;;18.17;13.05;;;;;;;23.61;27.96;100911.81;4989187;28;20042;-90
2023/01/05 11:53:47;;;;;;;19.55;13.15;;;;;;;23.65;28.37;100912.16;5003007;28;20030;-90
2023/01/05 11:56:32;;;;;;;18.17;13.05;;;;;;;22.40;30.13;100903.94;4907127;29;20044;-89
2023/01/05 11:59:30;;;;;;;18.00;12.95;;;;;;;21.69;31.07;100878.97;4939554;28;20041;-87
2023/01/05 12:02:46;;;;;;;19.67;12.85;;;;;;;20.65;33.08;100897.84;5007319;28;20034;-90
2023/01/05 12:26:27;;;;;;;19.23;13.30;;;;;;;17.32;40.27;100904.41;5027001;28;20064;-91
2023/01/05 12:29:35;;;;;;;20.15;13.38;;;;;;;17.43;40.01;100899.25;4997589;28;20046;-90
2023/01/05 12:32:23;;;;;;;19.65;13.32;;;;;;;17.69;39.92;100895.00;4984992;28;20042;-90
2023/01/05 12:34:57;;;;;;;19.10;13.48;;;;;;;17.81;39.55;100896.13;5003563;28;20101;-92
2023/01/05 12:38:08;;;;;;;24.33;14.90;;;;;;;17.63;39.80;100891.22;5017272;28;20042;-92
2023/01/05 12:41:02;;;;;;;30.60;16.65;;;;;;;17.67;39.86;100884.31;5015281;28;20050;-92
2023/01/05 12:43:34;;;;;;;23.77;14.90;;;;;;;17.57;40.07;100883.03;5014925;28;20050;-90
2023/01/05 12:47:02;;;;;;;25.35;14.90;;;;;;;17.34;40.78;100880.59;5013844;28;20038;-90
2023/01/05 12:49:55;;;;;;;21.45;13.82;;;;;;;16.88;41.52;100838.53;5021285;28;20119;-90
2023/01/05 12:52:49;;;;;;;23.02;14.43;;;;;;;17.22;41.16;100845.00;5022650;28;20045;-91
2023/01/05 12:55:37;;;;;;;22.58;14.60;;;;;;;17.02;42.06;100870.19;5016217;28;20026;-90
2023/01/05 12:58:33;;;;;;;23.60;14.32;;;;;;;17.23;41.78;100868.41;4996806;28;20034;-91
2023/01/05 13:01:26;;;;;;;27.45;14.50;;;;;;;17.19;41.77;100848.13;4997086;28;20049;-91
2023/01/05 13:04:03;;;;;;;22.10;14.30;;;;;;;17.27;41.77;100861.53;5001167;28;20026;-89
2023/01/05 13:06:55;;;;;;;21.63;14.85;;;;;;;16.93;42.34;100854.19;4995767;28;20058;-90
2023/01/05 13:10:24;;;;;;;25.20;16.35;;;;;;;16.96;42.87;100842.97;4980304;28;20045;-90
2023/01/05 13:13:56;;;;;;;28.17;17.13;;;;;;;16.83;42.46;100846.41;5011993;28;20058;-93
2023/01/05 13:30:01;;;;;;;22.42;14.13;;;;;;;15.61;45.23;100836.38;4992625;28;20050;-89
2023/01/05 13:33:01;;;;;;;20.08;14.52;;;;;;;15.65;46.10;100847.69;4963481;28;20051;-90
2023/01/05 13:36:21;;;;;;;30.27;14.73;;;;;;;15.52;46.17;100834.81;4970218;28;20094;-89
2023/01/05 13:39:23;;;;;;;26.38;15.02;;;;;;;15.30;47.43;100828.50;4995307;28;20042;-91